Time;durP1;ratioP1;P1;durP2;ratioP2;P2;SDS_P1;SDS_P2;PMS_P1;PMS_P2;Temp;Humidity;BMP_temperature;BMP_pressure;BME280_temperature;BME280_humidity;BME280_pressure;Samples;Min_cycle;Max_cycle;Signal;HPM_P1;HPM_P2
2022/07/15 00:02:13;;;;;;;14.60;3.05;;;14.80;99.90;;;;;;5058816;28;20049;-68
2022/07/15 00:04:39;;;;;;;14.32;2.65;;;14.80;99.90;;;;;;5075602;28;20037;-68
2022/07/15 00:07:06;;;;;;;13.75;2.97;;;14.90;99.90;;;;;;5074379;28;20040;-68
2022/07/15 00:12:16;;;;;;;;;;;15.00;99.90;;;;;;5075008;28;20447;-68
2022/07/15 00:14:42;;;;;;;8.98;2.67;;;15.00;99.90;;;;;;5057289;28;19972;-68
2022/07/15 00:17:09;;;;;;;9.07;3.00;;;15.00;99.90;;;;;;5075321;28;20048;-69
2022/07/15 00:19:35;;;;;;;13.35;2.67;;;15.00;99.90;;;;;;5081046;28;20055;-67
2022/07/15 00:22:01;;;;;;;7.60;2.85;;;15.10;99.90;;;;;;5086533;28;20095;-67
2022/07/15 00:24:28;;;;;;;15.00;2.70;;;15.10;99.90;;;;;;5078364;28;20076;-67
2022/07/15 00:26:53;;;;;;;9.13;2.08;;;15.00;99.90;;;;;;5096488;28;20475;-68
2022/07/15 00:29:19;;;;;;;8.48;2.13;;;15.00;99.90;;;;;;5098481;28;20122;-67
2022/07/15 00:31:45;;;;;;;8.52;2.60;;;15.00;99.90;;;;;;5098369;28;20327;-67
2022/07/15 00:34:10;;;;;;;8.93;2.17;;;14.90;99.90;;;;;;5098652;28;20455;-68
2022/07/15 00:36:36;;;;;;;9.70;2.10;;;14.80;99.90;;;;;;5097518;28;20355;-67
2022/07/15 00:39:01;;;;;;;9.73;2.13;;;14.70;99.90;;;;;;5066258;28;20056;-67
2022/07/15 00:41:34;;;;;;;6.97;2.13;;;14.60;99.90;;;;;;5078031;28;20445;-68
2022/07/15 00:44:00;;;;;;;9.75;2.22;;;14.60;99.90;;;;;;5077912;28;20416;-67
2022/07/15 00:46:25;;;;;;;13.10;2.33;;;14.50;99.90;;;;;;5059960;28;20094;-67
2022/07/15 00:48:51;;;;;;;12.85;3.50;;;14.40;99.90;;;;;;5077935;28;20048;-67
2022/07/15 00:51:17;;;;;;;11.85;2.35;;;14.40;99.90;;;;;;5077819;28;20098;-67
2022/07/15 00:53:46;;;;;;;10.30;2.40;;;14.40;99.90;;;;;;5077922;28;20126;-68
2022/07/15 00:56:16;;;;;;;8.45;2.45;;;14.30;99.90;;;;;;5077899;28;20045;-68
2022/07/15 00:58:43;;;;;;;9.45;2.60;;;14.30;99.90;;;;;;5079903;28;20416;-67
2022/07/15 01:01:10;;;;;;;8.25;2.03;;;14.20;99.90;;;;;;5097779;28;20458;-69
2022/07/15 01:03:36;;;;;;;10.70;3.00;;;14.20;99.90;;;;;;5080242;28;20060;-68
2022/07/15 01:06:02;;;;;;;6.32;1.90;;;14.20;99.90;;;;;;5097816;28;20095;-68
2022/07/15 01:08:28;;;;;;;8.68;2.20;;;14.20;99.90;;;;;;5097761;28;20064;-68
2022/07/15 01:10:54;;;;;;;7.80;1.65;;;14.20;99.90;;;;;;5097674;28;20542;-68
2022/07/15 01:13:20;;;;;;;7.28;2.20;;;14.20;99.90;;;;;;5087060;28;20086;-68
2022/07/15 01:15:47;;;;;;;7.82;2.20;;;14.20;99.90;;;;;;5077528;28;20086;-68
2022/07/15 01:18:12;;;;;;;9.27;2.13;;;14.20;99.90;;;;;;5077507;28;20058;-67
2022/07/15 01:20:42;;;;;;;7.72;2.30;;;14.20;99.90;;;;;;5077219;28;20044;-68
2022/07/15 01:23:08;;;;;;;5.68;1.85;;;14.10;99.90;;;;;;5077360;28;20507;-67
2022/07/15 01:25:33;;;;;;;6.85;1.70;;;14.10;99.90;;;;;;5077230;28;20112;-68
2022/07/15 01:27:59;;;;;;;7.57;1.58;;;14.10;99.90;;;;;;5076336;28;20087;-68
2022/07/15 01:30:25;;;;;;;4.80;1.60;;;14.00;99.90;;;;;;5077236;28;20101;-68
2022/07/15 01:32:51;;;;;;;5.70;1.42;;;14.10;99.90;;;;;;5059810;28;20431;-67
2022/07/15 01:35:17;;;;;;;3.70;1.40;;;14.00;99.90;;;;;;5076743;28;20106;-67
2022/07/15 01:37:44;;;;;;;4.03;1.33;;;14.00;99.90;;;;;;5042705;28;20139;-67
2022/07/15 01:40:10;;;;;;;4.63;1.45;;;14.00;99.90;;;;;;5094025;28;20109;-68
2022/07/15 01:42:36;;;;;;;4.43;0.93;;;13.90;99.90;;;;;;5096756;28;20056;-67
2022/07/15 01:45:06;;;;;;;6.50;0.88;;;13.90;99.90;;;;;;5079653;28;20515;-67
2022/07/15 01:47:32;;;;;;;4.90;1.30;;;14.00;99.90;;;;;;5097039;28;20127;-69
2022/07/15 01:49:59;;;;;;;2.83;0.95;;;13.90;99.90;;;;;;5097299;28;20411;-67
2022/07/15 01:52:25;;;;;;;6.93;2.50;;;13.90;99.90;;;;;;5097032;28;20420;-68
2022/07/15 01:54:51;;;;;;;3.45;0.80;;;13.90;99.90;;;;;;5079074;28;20123;-67
2022/07/15 01:57:17;;;;;;;3.92;1.10;;;13.80;99.90;;;;;;5058800;28;20469;-68
2022/07/15 01:59:43;;;;;;;4.57;0.93;;;13.80;99.90;;;;;;5076333;28;20123;-67
2022/07/15 02:02:08;;;;;;;5.00;0.90;;;13.70;99.90;;;;;;5076214;28;20136;-67
2022/07/15 02:04:34;;;;;;;5.40;1.00;;;13.70;99.90;;;;;;5077864;28;20028;-67
2022/07/15 02:06:59;;;;;;;4.65;0.80;;;13.70;99.90;;;;;;5083599;28;20040;-66
2022/07/15 02:09:25;;;;;;;4.28;0.93;;;13.60;99.90;;;;;;5096289;28;20532;-68
2022/07/15 02:11:51;;;;;;;4.45;0.90;;;13.60;99.90;;;;;;5096569;28;20054;-68
2022/07/15 02:14:17;;;;;;;2.88;1.25;;;13.60;99.90;;;;;;5096594;28;20040;-68
2022/07/15 02:16:42;;;;;;;4.50;0.70;;;13.60;99.90;;;;;;5078539;28;20048;-69
2022/07/15 02:19:08;;;;;;;5.05;0.90;;;13.60;99.90;;;;;;5095335;28;20102;-67
2022/07/15 02:21:34;;;;;;;2.90;1.00;;;13.50;99.90;;;;;;5095313;28;20466;-68
2022/07/15 02:24:00;;;;;;;3.40;1.05;;;13.50;99.90;;;;;;5096314;28;20358;-66
2022/07/15 02:26:26;;;;;;;1.42;0.77;;;13.60;99.90;;;;;;5096202;28;20040;-67
2022/07/15 02:28:52;;;;;;;4.25;1.02;;;13.60;99.90;;;;;;5096190;28;20036;-67
2022/07/15 02:31:17;;;;;;;5.05;1.08;;;13.50;99.90;;;;;;5078453;28;20048;-67
2022/07/15 02:33:43;;;;;;;1.65;0.55;;;13.50;99.90;;;;;;5095239;28;20468;-67
2022/07/15 02:36:09;;;;;;;3.22;0.75;;;13.50;99.90;;;;;;5061952;28;20048;-67
2022/07/15 02:38:35;;;;;;;5.45;1.25;;;13.50;99.90;;;;;;5095787;28;20129;-67
2022/07/15 02:41:00;;;;;;;1.70;0.73;;;13.50;99.90;;;;;;5078315;28;20051;-68
2022/07/15 02:43:26;;;;;;;3.40;1.10;;;13.50;99.90;;;;;;5075056;28;20468;-67
2022/07/15 02:45:52;;;;;;;3.15;1.00;;;13.50;99.90;;;;;;5096115;28;20036;-67
2022/07/15 02:48:17;;;;;;;4.75;1.30;;;13.40;99.90;;;;;;5094507;28;20054;-67
2022/07/15 02:50:44;;;;;;;4.38;0.98;;;13.40;99.90;;;;;;5095989;28;20044;-66
2022/07/15 02:53:10;;;;;;;2.45;0.80;;;13.40;99.90;;;;;;5095810;28;20097;-66
2022/07/15 02:55:36;;;;;;;3.30;0.70;;;13.40;99.90;;;;;;5095692;28;20384;-67
2022/07/15 02:58:02;;;;;;;1.83;0.70;;;13.40;99.90;;;;;;5095687;28;20454;-68
2022/07/15 03:00:28;;;;;;;1.98;0.60;;;13.40;99.90;;;;;;5093740;28;20466;-66
2022/07/15 03:02:53;;;;;;;3.10;0.88;;;13.30;99.90;;;;;;5078423;28;20040;-67
2022/07/15 03:05:19;;;;;;;3.95;1.30;;;13.20;99.90;;;;;;5095677;28;20036;-67
2022/07/15 03:07:45;;;;;;;6.07;1.17;;;13.20;99.90;;;;;;5095085;28;20051;-66
2022/07/15 03:10:11;;;;;;;5.72;0.98;;;13.20;99.90;;;;;;5095432;28;20040;-67
2022/07/15 03:12:37;;;;;;;2.40;0.80;;;13.10;99.90;;;;;;5095396;28;20108;-66
2022/07/15 03:15:03;;;;;;;3.50;1.60;;;13.00;99.90;;;;;;5094445;28;20056;-67
2022/07/15 03:17:29;;;;;;;5.35;0.80;;;13.00;99.90;;;;;;5096710;28;20472;-67
2022/07/15 03:19:55;;;;;;;4.63;0.98;;;13.00;99.90;;;;;;5079100;28;20089;-67
2022/07/15 03:22:22;;;;;;;1.95;0.80;;;13.00;99.90;;;;;;5096820;28;20086;-66
2022/07/15 03:24:48;;;;;;;1.75;0.70;;;13.00;99.90;;;;;;5097233;28;20059;-68
2022/07/15 03:27:15;;;;;;;4.88;1.30;;;13.10;99.90;;;;;;5095720;28;20105;-66
2022/07/15 03:29:41;;;;;;;3.35;1.13;;;13.10;99.90;;;;;;5096873;28;20076;-68
2022/07/15 03:32:07;;;;;;;4.75;1.55;;;13.00;99.90;;;;;;5095662;28;20055;-67
2022/07/15 03:34:33;;;;;;;2.38;1.23;;;12.90;99.90;;;;;;5095250;28;20089;-67
2022/07/15 03:36:59;;;;;;;4.18;0.90;;;13.00;99.90;;;;;;5095365;28;20048;-67
2022/07/15 03:39:26;;;;;;;2.15;1.02;;;13.00;99.90;;;;;;5095358;28;20044;-66
2022/07/15 03:41:51;;;;;;;2.65;1.27;;;13.00;99.90;;;;;;5093363;28;20051;-67
2022/07/15 03:44:17;;;;;;;5.28;1.58;;;13.00;99.90;;;;;;5077656;28;20040;-67
2022/07/15 03:46:45;;;;;;;7.15;1.75;;;13.00;99.90;;;;;;5095095;28;20052;-67
2022/07/15 03:49:14;;;;;;;4.65;1.70;;;13.00;99.90;;;;;;5095179;28;20036;-66
2022/07/15 03:51:40;;;;;;;5.03;2.50;;;12.90;99.90;;;;;;5098654;28;20480;-67
2022/07/15 03:54:07;;;;;;;5.20;1.77;;;12.90;99.90;;;;;;5099333;28;20086;-67
2022/07/15 03:56:33;;;;;;;5.15;1.35;;;12.90;99.90;;;;;;5095932;28;20040;-68
2022/07/15 03:58:58;;;;;;;3.40;1.15;;;12.80;99.90;;;;;;5078723;28;20484;-68
2022/07/15 04:01:24;;;;;;;4.82;1.42;;;12.80;99.90;;;;;;5078772;28;20127;-68
2022/07/15 04:03:51;;;;;;;3.97;0.88;;;12.70;99.90;;;;;;5078900;28;20447;-66
2022/07/15 04:06:18;;;;;;;3.78;0.80;;;12.80;99.90;;;;;;5078761;28;20048;-66
2022/07/15 04:08:44;;;;;;;1.98;0.80;;;12.70;99.90;;;;;;5078648;28;20056;-67
2022/07/15 04:11:10;;;;;;;2.53;0.85;;;12.70;99.90;;;;;;5079186;28;20053;-69
2022/07/15 04:13:37;;;;;;;3.22;0.70;;;12.80;99.90;;;;;;5098781;28;20062;-67
2022/07/15 04:16:03;;;;;;;4.80;1.00;;;12.80;99.90;;;;;;5098804;28;20050;-68
2022/07/15 04:18:29;;;;;;;2.08;0.90;;;12.80;99.90;;;;;;5099034;28;20067;-68
2022/07/15 04:20:54;;;;;;;4.10;0.77;;;12.80;99.90;;;;;;5098594;28;20048;-67
2022/07/15 04:23:20;;;;;;;3.78;0.70;;;12.90;99.90;;;;;;5080879;28;20040;-66
2022/07/15 04:25:46;;;;;;;3.50;0.80;;;12.90;99.90;;;;;;5079998;28;20075;-66
2022/07/15 04:28:11;;;;;;;4.38;1.00;;;12.90;99.90;;;;;;5087628;28;20051;-69
2022/07/15 04:30:37;;;;;;;5.03;1.15;;;12.90;99.90;;;;;;5098761;28;20457;-68
2022/07/15 04:33:03;;;;;;;3.42;0.90;;;12.90;99.90;;;;;;5098574;28;20361;-68
2022/07/15 04:35:28;;;;;;;5.75;1.40;;;13.00;99.90;;;;;;5098288;28;20449;-65
2022/07/15 04:37:54;;;;;;;6.32;1.00;;;13.10;99.90;;;;;;5097814;28;20040;-68
2022/07/15 04:40:19;;;;;;;1.70;0.90;;;13.10;99.90;;;;;;5087326;28;20049;-66
2022/07/15 04:42:45;;;;;;;6.32;1.45;;;13.10;99.90;;;;;;5077934;28;20040;-67
2022/07/15 04:45:11;;;;;;;3.90;0.80;;;13.20;99.90;;;;;;5077931;28;20051;-67
2022/07/15 04:47:36;;;;;;;4.68;1.23;;;13.20;99.90;;;;;;5077970;28;20041;-67
2022/07/15 04:52:47;;;;;;;5.28;1.20;;;13.40;99.90;;;;;;5077748;28;20045;-66
2022/07/15 04:55:14;;;;;;;4.25;1.17;;;13.50;99.90;;;;;;5060000;28;20072;-67
2022/07/15 04:57:40;;;;;;;2.47;1.10;;;13.50;99.90;;;;;;5093020;28;20370;-67
2022/07/15 05:00:06;;;;;;;3.05;1.20;;;13.60;99.90;;;;;;5096776;28;20044;-66
2022/07/15 05:02:32;;;;;;;4.65;1.30;;;13.70;99.90;;;;;;5077552;28;20044;-69
2022/07/15 05:04:58;;;;;;;2.90;1.20;;;13.80;99.90;;;;;;5083859;28;20059;-69
2022/07/15 05:07:23;;;;;;;2.83;1.25;;;13.80;99.90;;;;;;5077486;28;20041;-67
2022/07/15 05:09:49;;;;;;;2.70;0.73;;;13.90;99.90;;;;;;5077434;28;20056;-67
2022/07/15 05:12:15;;;;;;;4.70;1.65;;;14.00;99.90;;;;;;5059544;28;20055;-69
2022/07/15 05:14:41;;;;;;;6.80;1.42;;;14.00;99.90;;;;;;5077808;28;20431;-66
2022/07/15 05:17:07;;;;;;;24.02;4.50;;;14.10;99.90;;;;;;5077278;28;20083;-67
2022/07/15 05:19:33;;;;;;;32.95;4.38;;;14.00;99.90;;;;;;5059498;28;20097;-67
2022/07/15 05:21:59;;;;;;;39.72;4.75;;;14.10;99.90;;;;;;5042624;28;20447;-68
2022/07/15 05:24:25;;;;;;;25.98;3.45;;;14.20;99.90;;;;;;5077200;28;20115;-67
2022/07/15 05:26:50;;;;;;;24.23;4.05;;;14.20;99.90;;;;;;5089037;28;20040;-68
2022/07/15 05:29:16;;;;;;;8.38;2.30;;;14.30;99.90;;;;;;5097591;28;20040;-66
2022/07/15 05:31:41;;;;;;;3.83;1.20;;;14.40;99.90;;;;;;5097254;28;20055;-68
2022/07/15 05:34:07;;;;;;;17.17;2.35;;;14.50;99.90;;;;;;5096731;28;20043;-67
2022/07/15 05:36:33;;;;;;;4.60;1.23;;;14.70;99.90;;;;;;5063201;28;20087;-67
2022/07/15 05:38:58;;;;;;;3.65;1.13;;;14.70;99.90;;;;;;5096170;28;20075;-68
2022/07/15 05:41:24;;;;;;;3.88;1.27;;;14.70;99.90;;;;;;5077092;28;20044;-66
2022/07/15 05:43:49;;;;;;;8.57;1.30;;;14.80;99.90;;;;;;5076892;28;20055;-67
2022/07/15 05:46:15;;;;;;;7.32;1.67;;;14.80;99.90;;;;;;5059712;28;20044;-68
2022/07/15 05:48:41;;;;;;;5.65;1.45;;;14.90;99.90;;;;;;5076805;28;20052;-67
2022/07/15 05:51:07;;;;;;;5.13;1.23;;;14.90;99.90;;;;;;5076519;28;20075;-67
2022/07/15 05:53:33;;;;;;;7.82;0.93;;;15.00;99.90;;;;;;5076613;28;20055;-67
2022/07/15 05:55:59;;;;;;;5.20;1.55;;;15.20;99.90;;;;;;5083142;28;20358;-67
2022/07/15 05:58:25;;;;;;;6.28;1.67;;;15.20;99.90;;;;;;5096970;28;20119;-66
2022/07/15 06:00:51;;;;;;;6.95;1.42;;;15.30;99.90;;;;;;5096239;28;20178;-68
2022/07/15 06:03:17;;;;;;;5.38;1.23;;;15.40;99.90;;;;;;5078968;28;20335;-66
2022/07/15 06:05:43;;;;;;;5.90;1.40;;;15.50;99.90;;;;;;5096662;28;20051;-69
2022/07/15 06:08:10;;;;;;;5.07;1.38;;;15.40;99.90;;;;;;5096502;28;20109;-66
2022/07/15 06:10:36;;;;;;;4.00;1.10;;;15.50;99.90;;;;;;5095442;28;20052;-67
2022/07/15 06:13:02;;;;;;;5.68;1.27;;;15.40;99.90;;;;;;5096259;28;20051;-66
2022/07/15 06:15:28;;;;;;;5.07;1.42;;;15.40;99.90;;;;;;5078579;28;20442;-66
2022/07/15 06:17:53;;;;;;;4.18;1.08;;;15.40;99.90;;;;;;5078483;28;20488;-66
2022/07/15 06:20:19;;;;;;;3.97;1.50;;;15.40;99.90;;;;;;5096279;28;20079;-67
2022/07/15 06:22:45;;;;;;;5.40;1.75;;;15.40;99.90;;;;;;5096397;28;20055;-67
2022/07/15 06:25:11;;;;;;;7.40;1.25;;;15.50;99.90;;;;;;5080057;28;20393;-67
2022/07/15 06:27:37;;;;;;;11.95;0.98;;;15.50;99.90;;;;;;5075962;28;20036;-66
2022/07/15 06:30:04;;;;;;;7.13;1.10;;;15.60;99.90;;;;;;5075945;28;20117;-67
2022/07/15 06:32:29;;;;;;;4.50;0.80;;;15.70;99.90;;;;;;5076054;28;20036;-69
2022/07/15 06:34:55;;;;;;;4.43;1.30;;;15.80;99.90;;;;;;5075701;28;20048;-68
2022/07/15 06:37:21;;;;;;;5.18;0.70;;;15.90;99.90;;;;;;5075770;28;20045;-67
2022/07/15 06:39:47;;;;;;;4.80;0.82;;;16.00;99.90;;;;;;5088894;28;20040;-66
2022/07/15 06:42:12;;;;;;;2.10;0.80;;;16.10;99.90;;;;;;5095975;28;20389;-67
2022/07/15 06:44:38;;;;;;;2.42;0.55;;;16.10;99.90;;;;;;5095762;28;20036;-67
2022/07/15 06:47:06;;;;;;;2.90;1.05;;;16.10;99.90;;;;;;5096724;28;20100;-68
2022/07/15 06:49:32;;;;;;;2.25;0.90;;;16.10;99.90;;;;;;5096834;28;20048;-68
2022/07/15 06:51:58;;;;;;;5.03;0.75;;;16.10;99.90;;;;;;5095850;28;20054;-69
2022/07/15 06:54:24;;;;;;;3.55;1.48;;;16.10;99.90;;;;;;5081753;28;20052;-66
2022/07/15 06:56:50;;;;;;;4.07;0.93;;;16.10;99.90;;;;;;5075328;28;20106;-69
2022/07/15 06:59:16;;;;;;;5.63;1.20;;;16.10;99.90;;;;;;5075115;28;20060;-67
2022/07/15 07:01:41;;;;;;;4.13;1.20;;;16.10;99.90;;;;;;5075067;28;20068;-68
2022/07/15 07:04:07;;;;;;;3.63;0.60;;;16.10;99.90;;;;;;5075446;28;20082;-67
2022/07/15 07:06:33;;;;;;;2.72;0.82;;;16.10;99.90;;;;;;5075289;28;20363;-68
2022/07/15 07:08:59;;;;;;;2.67;1.30;;;16.20;99.90;;;;;;5074915;28;20052;-66
2022/07/15 07:11:25;;;;;;;2.60;0.82;;;16.30;99.90;;;;;;5075031;28;20057;-70
2022/07/15 07:13:51;;;;;;;4.63;0.70;;;16.50;99.90;;;;;;5075289;28;20052;-67
2022/07/15 07:16:17;;;;;;;1.58;0.55;;;16.50;99.90;;;;;;5075081;28;20047;-67
2022/07/15 07:18:47;;;;;;;2.08;0.93;;;16.40;99.90;;;;;;5075126;28;20048;-68
2022/07/15 07:21:13;;;;;;;1.83;0.60;;;16.50;99.90;;;;;;5074849;28;20394;-67
2022/07/15 07:23:39;;;;;;;3.28;0.85;;;16.50;99.90;;;;;;5077133;28;20083;-70
2022/07/15 07:26:06;;;;;;;0.88;0.50;;;16.40;99.90;;;;;;5074678;28;20076;-71
2022/07/15 07:28:33;;;;;;;4.60;1.05;;;16.60;99.90;;;;;;5075237;28;20097;-67
2022/07/15 07:31:01;;;;;;;3.58;0.88;;;16.70;99.90;;;;;;5057484;28;20245;-68
2022/07/15 07:33:27;;;;;;;3.30;0.70;;;16.70;99.90;;;;;;5074596;28;20049;-68
2022/07/15 07:35:53;;;;;;;5.55;1.10;;;16.80;99.90;;;;;;5074653;28;20060;-69
2022/07/15 07:38:20;;;;;;;2.15;0.82;;;16.90;99.90;;;;;;5095256;28;20048;-69
2022/07/15 07:40:49;;;;;;;2.28;0.88;;;16.70;99.90;;;;;;5094953;28;20453;-66
2022/07/15 07:43:18;;;;;;;5.07;1.00;;;16.80;99.90;;;;;;5077116;28;20117;-67
2022/07/15 07:45:47;;;;;;;5.95;1.15;;;16.90;99.90;;;;;;5094809;28;20083;-69
2022/07/15 07:48:13;;;;;;;4.32;0.98;;;16.90;99.90;;;;;;5094956;28;20044;-69
2022/07/15 07:50:39;;;;;;;7.03;1.02;;;16.90;99.90;;;;;;5094098;28;20040;-67
2022/07/15 07:53:05;;;;;;;5.07;0.90;;;17.00;99.90;;;;;;5095086;28;20397;-65
2022/07/15 07:55:31;;;;;;;4.90;1.02;;;16.90;99.90;;;;;;5095011;28;20029;-68
2022/07/15 07:57:58;;;;;;;2.70;0.90;;;17.00;99.90;;;;;;5089217;28;20055;-65
2022/07/15 08:00:26;;;;;;;2.67;0.70;;;17.10;99.90;;;;;;5094240;28;20458;-66
2022/07/15 08:02:53;;;;;;;3.13;0.90;;;17.30;99.90;;;;;;5088414;28;20128;-66
2022/07/15 08:05:19;;;;;;;1.90;0.60;;;17.10;99.90;;;;;;5094852;28;20059;-68
2022/07/15 08:07:45;;;;;;;2.55;0.90;;;17.10;99.90;;;;;;5094683;28;20062;-68
2022/07/15 08:10:12;;;;;;;3.40;0.80;;;17.10;99.90;;;;;;5077158;28;20052;-69
2022/07/15 08:12:38;;;;;;;4.10;0.90;;;16.90;99.90;;;;;;5094719;28;20040;-70
2022/07/15 08:15:06;;;;;;;3.60;1.45;;;16.80;99.90;;;;;;5094527;28;20062;-70
2022/07/15 08:17:32;;;;;;;2.88;0.63;;;16.90;99.90;;;;;;5094789;28;20086;-67
2022/07/15 08:19:57;;;;;;;6.35;0.95;;;17.10;99.90;;;;;;5085333;28;20415;-69
2022/07/15 08:22:23;;;;;;;5.50;1.30;;;17.10;99.90;;;;;;5077838;28;20036;-71
2022/07/15 08:24:51;;;;;;;3.92;0.80;;;17.30;99.90;;;;;;5100961;28;20044;-68
2022/07/15 08:27:18;;;;;;;8.23;0.82;;;17.30;99.90;;;;;;5113692;28;20448;-69
2022/07/15 08:29:44;;;;;;;2.35;0.60;;;17.20;99.90;;;;;;5109311;28;20154;-70
2022/07/15 08:32:10;;;;;;;4.43;1.17;;;17.30;99.90;;;;;;5094669;28;20122;-70
2022/07/15 08:34:35;;;;;;;3.85;0.85;;;17.40;99.90;;;;;;5094670;28;20535;-68
2022/07/15 08:37:01;;;;;;;2.72;0.50;;;17.30;99.90;;;;;;5087400;28;20051;-70
2022/07/15 08:39:27;;;;;;;1.73;0.65;;;17.30;99.90;;;;;;5077965;28;20040;-72
2022/07/15 08:41:52;;;;;;;1.98;0.68;;;17.50;99.90;;;;;;5095914;28;20152;-70
2022/07/15 08:44:18;;;;;;;2.78;0.68;;;17.60;99.90;;;;;;5070019;28;20430;-71
2022/07/15 08:46:47;;;;;;;11.10;2.25;;;17.60;99.90;;;;;;5077795;28;20033;-70
2022/07/15 08:49:16;;;;;;;1.98;0.82;;;17.70;99.90;;;;;;5078015;28;20049;-69
2022/07/15 08:51:45;;;;;;;1.92;0.68;;;18.00;99.90;;;;;;5077746;28;20044;-71
2022/07/15 08:54:12;;;;;;;5.10;0.90;;;17.90;99.90;;;;;;5043871;28;20048;-69
2022/07/15 08:56:38;;;;;;;3.90;0.70;;;18.10;99.90;;;;;;5077525;28;20047;-69
2022/07/15 08:59:05;;;;;;;1.80;0.38;;;18.00;99.90;;;;;;5086351;28;20058;-71
2022/07/15 09:01:32;;;;;;;1.20;0.57;;;17.60;99.90;;;;;;5097988;28;20044;-68
2022/07/15 09:03:58;;;;;;;3.83;0.70;;;17.90;99.90;;;;;;5098127;28;20047;-68
2022/07/15 09:06:39;;;;;;;1.75;0.68;;;18.10;99.90;;;;;;5097724;28;20036;-71
2022/07/15 09:09:31;;;;;;;2.10;0.75;;;18.10;99.90;;;;;;5097561;28;20462;-69
2022/07/15 09:12:07;;;;;;;2.78;0.50;;;17.80;99.90;;;;;;5096814;28;20043;-69
2022/07/15 09:14:35;;;;;;;1.48;0.55;;;17.80;99.90;;;;;;5097247;28;20044;-69
2022/07/15 09:17:20;;;;;;;2.33;0.80;;;17.90;99.90;;;;;;5080024;28;20119;-69
2022/07/15 09:19:55;;;;;;;;;;;18.10;99.90;;;;;;5097933;28;20066;-68
2022/07/15 09:22:21;;;;;;;2.28;0.57;;;18.30;99.90;;;;;;5097698;28;20011;-70
2022/07/15 09:24:50;;;;;;;1.17;0.65;;;18.30;99.90;;;;;;5097676;28;20119;-70
2022/07/15 09:27:34;;;;;;;1.02;0.50;;;18.40;99.90;;;;;;5096588;28;20458;-69
2022/07/15 09:33:54;;;;;;;7.82;0.80;;;18.10;99.90;;;;;;5097313;28;20450;-69
2022/07/15 09:36:07;;;;;;;3.45;0.60;;;18.30;99.90;;;;;;5086105;28;20098;-70
2022/07/15 09:38:46;;;;;;;1.00;0.50;;;18.10;99.90;;;;;;5097268;28;20059;-71
2022/07/15 09:41:27;;;;;;;1.80;0.52;;;18.30;99.90;;;;;;5095245;28;20058;-69
2022/07/15 09:43:54;;;;;;;5.07;0.60;;;18.40;99.90;;;;;;5097130;28;20055;-69
2022/07/15 09:46:22;;;;;;;2.80;0.68;;;18.60;99.90;;;;;;5094856;28;20047;-69
2022/07/15 09:48:50;;;;;;;3.75;0.80;;;18.70;99.90;;;;;;5078858;28;20049;-70
2022/07/15 09:51:16;;;;;;;4.57;0.82;;;18.70;99.90;;;;;;5078350;28;20055;-70
2022/07/15 09:53:43;;;;;;;5.03;1.13;;;18.80;99.90;;;;;;5096955;28;20051;-69
2022/07/15 09:56:11;;;;;;;3.30;1.35;;;18.50;99.90;;;;;;5097048;28;20115;-69
2022/07/15 09:58:39;;;;;;;3.67;0.85;;;18.60;99.90;;;;;;5096748;28;20123;-69
2022/07/15 10:01:06;;;;;;;9.77;1.70;;;18.80;99.90;;;;;;5096616;28;20052;-69
2022/07/15 10:03:35;;;;;;;2.38;0.85;;;18.90;99.90;;;;;;5067073;28;20051;-70
2022/07/15 10:06:03;;;;;;;4.53;0.88;;;19.00;99.90;;;;;;5076608;28;20037;-71
2022/07/15 10:08:33;;;;;;;4.57;0.90;;;19.00;99.90;;;;;;5076131;28;20064;-68
2022/07/15 10:10:58;;;;;;;2.72;0.85;;;18.80;99.90;;;;;;5076270;28;20076;-68
2022/07/15 10:13:42;;;;;;;1.92;1.20;;;18.80;99.90;;;;;;5076309;28;20157;-70
2022/07/15 10:16:27;;;;;;;2.08;1.05;;;18.70;99.90;;;;;;5076323;28;20123;-70
2022/07/15 10:19:07;;;;;;;4.15;1.17;;;18.70;99.90;;;;;;5091698;28;20197;-71
2022/07/15 10:21:50;;;;;;;3.97;1.05;;;18.60;99.90;;;;;;5096444;28;20123;-69
2022/07/15 10:24:43;;;;;;;2.33;0.98;;;18.50;99.90;;;;;;5096484;28;20044;-70
2022/07/15 10:27:21;;;;;;;6.82;1.20;;;18.50;99.90;;;;;;5089519;28;20041;-70
2022/07/15 10:29:47;;;;;;;6.65;1.30;;;18.80;99.90;;;;;;5075730;28;20051;-69
2022/07/15 10:32:13;;;;;;;3.83;1.23;;;18.80;99.90;;;;;;5075898;28;20080;-70
2022/07/15 10:34:39;;;;;;;2.55;1.13;;;18.40;99.90;;;;;;5075809;28;20137;-69
2022/07/15 10:37:11;;;;;;;4.55;1.27;;;18.30;99.90;;;;;;5075552;28;20068;-70
2022/07/15 10:39:46;;;;;;;2.10;0.80;;;18.30;99.90;;;;;;5075860;28;20141;-71
2022/07/15 10:42:12;;;;;;;5.72;1.90;;;18.60;99.90;;;;;;5082217;28;20089;-70
2022/07/15 10:44:57;;;;;;;1.88;0.90;;;18.80;99.90;;;;;;5082082;28;20138;-70
2022/07/15 10:47:23;;;;;;;3.20;1.48;;;19.20;99.90;;;;;;5088188;28;20048;-69
2022/07/15 10:49:50;;;;;;;8.43;1.42;;;19.70;99.90;;;;;;5096109;28;20048;-69
2022/07/15 10:52:20;;;;;;;2.50;1.35;;;19.70;99.90;;;;;;5095931;28;20062;-69
2022/07/15 10:54:50;;;;;;;5.30;2.60;;;19.40;99.90;;;;;;5095975;28;20055;-71
2022/07/15 10:57:19;;;;;;;5.07;1.90;;;19.10;99.90;;;;;;5086087;28;20040;-70
2022/07/15 10:59:52;;;;;;;3.35;1.33;;;19.10;99.90;;;;;;5095505;28;20126;-74
2022/07/15 11:02:20;;;;;;;5.72;1.80;;;19.30;99.90;;;;;;5095164;28;20050;-70
2022/07/15 11:04:47;;;;;;;5.13;1.98;;;19.30;99.90;;;;;;5061334;28;20121;-70
2022/07/15 11:07:16;;;;;;;2.40;1.40;;;19.30;99.90;;;;;;5095298;28;20044;-71
2022/07/15 11:10:14;;;;;;;4.80;1.95;;;19.10;99.90;;;;;;5076539;28;20056;-71
2022/07/15 11:12:48;;;;;;;4.40;1.40;;;18.90;99.90;;;;;;5095268;28;20078;-71
2022/07/15 11:15:19;;;;;;;3.58;1.45;;;18.50;99.90;;;;;;5095400;28;20044;-70
2022/07/15 11:17:48;;;;;;;5.45;1.98;;;18.50;99.90;;;;;;5095314;28;20125;-70
2022/07/15 11:20:17;;;;;;;4.28;2.30;;;18.90;99.90;;;;;;5094961;28;20505;-70
2022/07/15 11:22:48;;;;;;;5.82;1.85;;;19.30;99.90;;;;;;5095011;28;20083;-72
2022/07/15 11:25:18;;;;;;;4.53;2.03;;;19.40;99.90;;;;;;5094132;28;20454;-70
2022/07/15 11:28:00;;;;;;;5.93;1.98;;;19.70;99.90;;;;;;5094752;28;20048;-72
2022/07/15 11:30:26;;;;;;;3.70;1.35;;;19.60;99.90;;;;;;5077064;28;20052;-70
2022/07/15 11:32:57;;;;;;;4.57;2.10;;;19.30;99.90;;;;;;5077224;28;20102;-71
2022/07/15 11:35:23;;;;;;;7.72;2.33;;;19.00;99.90;;;;;;5095125;28;20090;-71
2022/07/15 11:38:03;;;;;;;4.55;1.90;;;19.30;99.90;;;;;;5094878;28;20080;-73
2022/07/15 11:46:04;;;;;;;3.33;1.90;;;19.70;99.90;;;;;;5056898;28;20488;-74
2022/07/15 11:48:37;;;;;;;3.13;1.50;;;19.50;99.90;;;;;;5074837;28;20044;-72
2022/07/15 11:51:04;;;;;;;6.05;2.10;;;19.30;99.90;;;;;;5074444;28;20394;-72
2022/07/15 11:53:42;;;;;;;7.95;2.05;;;19.40;99.90;;;;;;5074485;28;20530;-73
2022/07/15 11:56:09;;;;;;;6.45;1.63;;;19.20;99.90;;;;;;5093890;28;20039;-73
2022/07/15 11:58:41;;;;;;;3.15;1.92;;;19.30;99.90;;;;;;5094955;28;20036;-73
2022/07/15 12:01:09;;;;;;;8.23;2.80;;;19.20;99.90;;;;;;5094840;28;20055;-73
2022/07/15 12:03:37;;;;;;;3.35;1.70;;;19.00;99.90;;;;;;5094967;28;20066;-73
2022/07/15 12:06:23;;;;;;;6.18;2.00;;;18.80;99.90;;;;;;5094808;28;20061;-73
2022/07/15 12:08:53;;;;;;;5.25;1.85;;;18.70;99.90;;;;;;5072250;28;20056;-73
2022/07/15 12:11:23;;;;;;;4.22;2.25;;;18.70;99.90;;;;;;5076690;28;20048;-73
2022/07/15 12:14:18;;;;;;;5.30;2.63;;;18.80;99.90;;;;;;5078730;28;20044;-73
2022/07/15 12:16:46;;;;;;;5.43;2.00;;;18.80;99.90;;;;;;5060697;28;20071;-73
2022/07/15 12:19:29;;;;;;;4.53;2.17;;;18.80;99.90;;;;;;5078386;28;20119;-73
2022/07/15 12:21:58;;;;;;;3.67;2.10;;;18.80;99.90;;;;;;5078008;28;20048;-73
2022/07/15 12:24:28;;;;;;;6.60;2.50;;;18.70;99.90;;;;;;5098695;28;20039;-73
2022/07/15 12:26:54;;;;;;;4.60;2.25;;;18.90;99.90;;;;;;5098326;28;20036;-73
2022/07/15 12:29:29;;;;;;;10.70;2.42;;;19.10;99.90;;;;;;5098866;28;20347;-73
2022/07/15 12:32:00;;;;;;;4.22;1.77;;;19.40;99.90;;;;;;5098453;28;20181;-73
2022/07/15 12:34:53;;;;;;;3.00;1.45;;;19.90;99.90;;;;;;5098632;28;20413;-70
2022/07/15 12:37:25;;;;;;;5.65;2.00;;;20.20;99.90;;;;;;5095961;28;20044;-71
2022/07/15 12:40:11;;;;;;;4.30;2.45;;;20.10;99.90;;;;;;5098280;28;20090;-71
2022/07/15 12:42:48;;;;;;;3.83;1.73;;;20.80;99.90;;;;;;5098221;28;20126;-71
2022/07/15 12:45:22;;;;;;;3.50;2.13;;;20.90;99.90;;;;;;5098363;28;20087;-71
2022/07/15 12:48:13;;;;;;;8.95;1.95;;;20.40;99.90;;;;;;5097882;28;20461;-70
2022/07/15 12:50:50;;;;;;;4.30;2.00;;;20.20;99.90;;;;;;5094329;28;20043;-72
2022/07/15 12:53:20;;;;;;;4.72;2.17;;;20.50;99.90;;;;;;5077772;28;20075;-73
2022/07/15 12:55:49;;;;;;;6.40;1.95;;;20.30;99.90;;;;;;5077154;28;20090;-72
2022/07/15 12:58:17;;;;;;;7.78;2.15;;;20.30;99.90;;;;;;5077688;28;20055;-74
2022/07/15 13:00:44;;;;;;;3.42;1.80;;;20.20;99.90;;;;;;5077333;28;20052;-73
2022/07/15 13:03:21;;;;;;;6.47;1.77;;;20.00;99.90;;;;;;5077282;28;20040;-74
2022/07/15 13:05:49;;;;;;;5.43;2.60;;;19.80;99.90;;;;;;5077718;28;20040;-74